Time;durP1;ratioP1;P1;durP2;ratioP2;P2;SDS_P1;SDS_P2;PMS_P1;PMS_P2;Temp;Humidity;BMP_temperature;BMP_pressure;BME280_temperature;BME280_humidity;BME280_pressure;Samples;Min_cycle;Max_cycle;Signal;HPM_P1;HPM_P2
2023/09/24 00:00:10;;;;;;;20.33;12.70;;;;;;;;;;5012830;28;20022;-74
2023/09/24 00:02:36;;;;;;;19.33;12.48;;;;;;;;;;5015897;28;20026;-74
2023/09/24 00:05:05;;;;;;;19.40;12.57;;;;;;;;;;5013151;28;20037;-75
2023/09/24 00:07:31;;;;;;;19.17;13.07;;;;;;;;;;5013740;28;20034;-75
2023/09/24 00:10:00;;;;;;;22.20;13.70;;;;;;;;;;5013508;28;20543;-74
2023/09/24 00:12:27;;;;;;;16.65;12.70;;;;;;;;;;5013538;28;20526;-73
2023/09/24 00:14:53;;;;;;;16.42;12.75;;;;;;;;;;5013171;28;20114;-76
2023/09/24 00:17:19;;;;;;;16.58;11.70;;;;;;;;;;5013218;28;20057;-76
2023/09/24 00:19:45;;;;;;;19.23;12.70;;;;;;;;;;5013822;28;20030;-75
2023/09/24 00:22:12;;;;;;;22.80;13.20;;;;;;;;;;5013577;28;20029;-76
2023/09/24 00:24:38;;;;;;;18.83;12.13;;;;;;;;;;5013223;28;20076;-75
2023/09/24 00:27:05;;;;;;;22.95;13.25;;;;;;;;;;5013027;28;20531;-75
2023/09/24 00:29:31;;;;;;;16.60;11.85;;;;;;;;;;5013146;28;20566;-75
2023/09/24 00:31:57;;;;;;;17.30;11.90;;;;;;;;;;5013106;28;20033;-75
2023/09/24 00:34:23;;;;;;;16.60;12.52;;;;;;;;;;5013011;28;20045;-75
2023/09/24 00:36:53;;;;;;;21.23;12.60;;;;;;;;;;5013092;28;20033;-75
2023/09/24 00:39:19;;;;;;;19.35;12.07;;;;;;;;;;5013326;28;20104;-75
2023/09/24 00:41:46;;;;;;;16.38;12.73;;;;;;;;;;5013248;28;20109;-75
2023/09/24 00:44:14;;;;;;;16.42;12.13;;;;;;;;;;5013177;28;20041;-75
2023/09/24 00:46:44;;;;;;;19.77;11.90;;;;;;;;;;5013176;28;20417;-76
2023/09/24 00:49:15;;;;;;;19.58;12.10;;;;;;;;;;5012951;28;20567;-75
2023/09/24 00:51:42;;;;;;;29.83;12.55;;;;;;;;;;5012802;28;20038;-75
2023/09/24 00:54:09;;;;;;;19.00;12.00;;;;;;;;;;5012695;28;20449;-74
2023/09/24 00:56:36;;;;;;;18.33;11.05;;;;;;;;;;5012697;28;20109;-74
2023/09/24 00:59:02;;;;;;;21.60;12.20;;;;;;;;;;5012632;28;20022;-74
2023/09/24 01:01:29;;;;;;;19.35;12.13;;;;;;;;;;5012629;28;20516;-74
2023/09/24 01:03:55;;;;;;;19.23;11.48;;;;;;;;;;5012772;28;20029;-74
2023/09/24 01:06:21;;;;;;;20.23;11.77;;;;;;;;;;5012356;28;20053;-74
2023/09/24 01:08:48;;;;;;;16.30;11.00;;;;;;;;;;5012409;28;20064;-75
2023/09/24 01:11:14;;;;;;;14.75;10.68;;;;;;;;;;5012339;28;20084;-73
2023/09/24 01:13:45;;;;;;;22.33;12.30;;;;;;;;;;5012356;28;20053;-74
2023/09/24 01:16:11;;;;;;;18.98;11.55;;;;;;;;;;5012224;28;20021;-74
2023/09/24 01:18:39;;;;;;;19.15;11.00;;;;;;;;;;5013032;28;20047;-73
2023/09/24 01:21:12;;;;;;;20.10;11.48;;;;;;;;;;5013759;28;20022;-74
2023/09/24 01:23:40;;;;;;;17.52;11.00;;;;;;;;;;5013255;28;20030;-74
2023/09/24 01:26:08;;;;;;;17.77;11.82;;;;;;;;;;5012457;28;20021;-75
2023/09/24 01:28:34;;;;;;;14.73;10.82;;;;;;;;;;5012395;28;20047;-75
2023/09/24 01:31:00;;;;;;;16.40;10.77;;;;;;;;;;5012257;28;20046;-76
2023/09/24 01:33:26;;;;;;;18.05;10.73;;;;;;;;;;5011943;28;20034;-75
2023/09/24 01:35:52;;;;;;;16.48;11.25;;;;;;;;;;5012060;28;20025;-74
2023/09/24 01:38:19;;;;;;;22.80;11.15;;;;;;;;;;5011994;28;20029;-74
2023/09/24 01:40:45;;;;;;;17.77;11.35;;;;;;;;;;5012145;28;20534;-76
2023/09/24 01:43:14;;;;;;;16.05;11.40;;;;;;;;;;5012113;28;20034;-72
2023/09/24 01:45:40;;;;;;;17.60;11.95;;;;;;;;;;5011909;28;20021;-74
2023/09/24 01:48:09;;;;;;;20.75;11.65;;;;;;;;;;5011889;28;20495;-72
2023/09/24 01:50:36;;;;;;;18.42;10.13;;;;;;;;;;5010954;28;20087;-74
2023/09/24 01:53:03;;;;;;;19.98;11.70;;;;;;;;;;5011999;28;20022;-73
2023/09/24 01:55:29;;;;;;;15.38;10.52;;;;;;;;;;5011701;28;20026;-74
2023/09/24 01:57:56;;;;;;;18.13;11.52;;;;;;;;;;5011826;28;20026;-74
2023/09/24 02:00:26;;;;;;;14.02;10.55;;;;;;;;;;5011860;28;20032;-74
2023/09/24 02:03:07;;;;;;;17.88;10.90;;;;;;;;;;5011769;28;20094;-74
2023/09/24 02:05:38;;;;;;;15.88;10.10;;;;;;;;;;5011688;28;20021;-74
2023/09/24 02:08:09;;;;;;;16.92;9.85;;;;;;;;;;5011850;28;20030;-74
2023/09/24 02:10:38;;;;;;;17.10;9.90;;;;;;;;;;5011611;28;20485;-73
2023/09/24 02:13:05;;;;;;;19.42;11.93;;;;;;;;;;5012096;28;20369;-73
2023/09/24 02:15:31;;;;;;;15.50;10.60;;;;;;;;;;5011587;28;20472;-74
2023/09/24 02:17:57;;;;;;;13.50;10.45;;;;;;;;;;5011622;28;20026;-75
2023/09/24 02:20:31;;;;;;;18.90;9.73;;;;;;;;;;5011749;28;20038;-74
2023/09/24 02:22:59;;;;;;;18.40;10.90;;;;;;;;;;5011541;28;20018;-74
2023/09/24 02:25:26;;;;;;;19.75;12.05;;;;;;;;;;5015048;28;20026;-74
2023/09/24 02:27:52;;;;;;;22.63;11.63;;;;;;;;;;5019804;28;20026;-75
2023/09/24 02:30:18;;;;;;;17.88;11.50;;;;;;;;;;5035235;28;20026;-74
2023/09/24 02:32:45;;;;;;;19.17;10.20;;;;;;;;;;5034815;28;20025;-74
2023/09/24 02:35:12;;;;;;;18.42;11.15;;;;;;;;;;5034919;28;20034;-72
2023/09/24 02:37:45;;;;;;;21.65;11.15;;;;;;;;;;5034871;28;20044;-72
2023/09/24 02:40:17;;;;;;;20.20;11.63;;;;;;;;;;5035058;28;20024;-73
2023/09/24 02:42:46;;;;;;;21.58;10.82;;;;;;;;;;5034853;28;20029;-72
2023/09/24 02:45:12;;;;;;;15.20;11.20;;;;;;;;;;5034793;28;20025;-73
2023/09/24 02:47:38;;;;;;;22.15;10.80;;;;;;;;;;5035332;28;20056;-73
2023/09/24 02:50:08;;;;;;;15.73;10.85;;;;;;;;;;5036732;28;20030;-75
2023/09/24 02:52:35;;;;;;;18.77;11.52;;;;;;;;;;5034609;28;20277;-73
2023/09/24 02:55:04;;;;;;;14.23;10.50;;;;;;;;;;5034660;28;20504;-73
2023/09/24 02:57:30;;;;;;;19.48;11.52;;;;;;;;;;5034470;28;20017;-73
2023/09/24 02:59:58;;;;;;;18.08;10.10;;;;;;;;;;5034654;28;20377;-74
2023/09/24 03:02:26;;;;;;;15.60;10.23;;;;;;;;;;5034516;28;20027;-73
2023/09/24 03:04:52;;;;;;;16.10;10.50;;;;;;;;;;5034271;28;20030;-72
2023/09/24 03:07:19;;;;;;;17.08;11.27;;;;;;;;;;5034519;28;20049;-73
2023/09/24 03:09:45;;;;;;;17.50;9.93;;;;;;;;;;5034836;28;20037;-74
2023/09/24 03:12:12;;;;;;;16.85;10.93;;;;;;;;;;5049959;28;20060;-73
2023/09/24 03:14:38;;;;;;;16.08;10.80;;;;;;;;;;5034143;28;20408;-75
2023/09/24 03:17:05;;;;;;;23.85;11.00;;;;;;;;;;5034588;28;20433;-73
2023/09/24 03:19:31;;;;;;;15.35;11.10;;;;;;;;;;5034181;28;20044;-72
2023/09/24 03:21:57;;;;;;;19.58;9.85;;;;;;;;;;5034634;28;20014;-73
2023/09/24 03:24:23;;;;;;;19.63;10.15;;;;;;;;;;5033975;28;20030;-74
2023/09/24 03:26:49;;;;;;;20.38;11.45;;;;;;;;;;5033828;28;20336;-74
2023/09/24 03:29:15;;;;;;;16.10;10.27;;;;;;;;;;5033980;28;20061;-74
2023/09/24 03:31:42;;;;;;;17.48;10.57;;;;;;;;;;5034048;28;20048;-74
2023/09/24 03:34:08;;;;;;;17.77;10.52;;;;;;;;;;5033664;28;20038;-73
2023/09/24 03:36:34;;;;;;;19.20;10.23;;;;;;;;;;5034533;28;20048;-76
2023/09/24 03:39:00;;;;;;;13.15;9.50;;;;;;;;;;5035141;28;20112;-76
2023/09/24 03:41:26;;;;;;;18.35;9.93;;;;;;;;;;5032971;28;20024;-76
2023/09/24 03:43:52;;;;;;;17.10;9.93;;;;;;;;;;5033418;28;20049;-74
2023/09/24 03:46:18;;;;;;;16.50;9.75;;;;;;;;;;5032839;28;20017;-75
2023/09/24 03:48:44;;;;;;;16.85;10.15;;;;;;;;;;5033299;28;20056;-74
2023/09/24 03:51:10;;;;;;;14.98;9.40;;;;;;;;;;5032725;28;20040;-75
2023/09/24 03:53:37;;;;;;;16.80;8.82;;;;;;;;;;5032487;28;20029;-75
2023/09/24 03:56:07;;;;;;;18.63;9.85;;;;;;;;;;5032289;28;20056;-75
2023/09/24 03:58:33;;;;;;;14.90;9.18;;;;;;;;;;5032520;28;20120;-75
2023/09/24 04:00:58;;;;;;;16.15;9.13;;;;;;;;;;5033229;28;20109;-70
2023/09/24 04:03:24;;;;;;;17.20;9.32;;;;;;;;;;5033620;28;20021;-74
2023/09/24 04:05:51;;;;;;;16.45;9.10;;;;;;;;;;5033608;28;20017;-74
2023/09/24 04:08:17;;;;;;;13.02;8.50;;;;;;;;;;5036797;28;20537;-74
2023/09/24 04:10:43;;;;;;;16.92;9.57;;;;;;;;;;5036206;28;20033;-75
2023/09/24 04:13:09;;;;;;;15.10;9.52;;;;;;;;;;5033829;28;20034;-73
2023/09/24 04:15:36;;;;;;;14.35;8.63;;;;;;;;;;5034267;28;20444;-75
2023/09/24 04:18:03;;;;;;;15.90;8.98;;;;;;;;;;5035712;28;20041;-74
2023/09/24 04:20:30;;;;;;;12.48;8.18;;;;;;;;;;5035865;28;20526;-74
2023/09/24 04:22:56;;;;;;;17.65;8.68;;;;;;;;;;5035271;28;20018;-74
2023/09/24 04:25:24;;;;;;;18.45;8.85;;;;;;;;;;5032983;28;20060;-74
2023/09/24 04:27:50;;;;;;;14.68;8.13;;;;;;;;;;5035179;28;20036;-75
2023/09/24 04:30:21;;;;;;;10.70;7.25;;;;;;;;;;5034240;28;20113;-74
2023/09/24 04:32:48;;;;;;;15.13;7.72;;;;;;;;;;5033614;28;20033;-75
2023/09/24 04:35:14;;;;;;;14.90;7.25;;;;;;;;;;5035745;28;20029;-74
2023/09/24 04:37:40;;;;;;;13.88;8.27;;;;;;;;;;5036216;28;20029;-75
2023/09/24 04:40:10;;;;;;;13.55;8.40;;;;;;;;;;5034698;28;20033;-75
2023/09/24 04:42:37;;;;;;;17.85;7.93;;;;;;;;;;5032864;28;20037;-74
2023/09/24 04:45:03;;;;;;;11.43;8.32;;;;;;;;;;5032413;28;20407;-74
2023/09/24 04:47:29;;;;;;;11.98;7.60;;;;;;;;;;5032288;28;20140;-73
2023/09/24 04:49:55;;;;;;;22.50;12.10;;;;;;;;;;5032917;28;20476;-73
2023/09/24 04:52:21;;;;;;;13.70;8.13;;;;;;;;;;5032677;28;20107;-73
2023/09/24 04:54:47;;;;;;;15.38;7.15;;;;;;;;;;5032051;28;20488;-73
2023/09/24 04:57:14;;;;;;;12.90;7.43;;;;;;;;;;5032442;28;20364;-72
2023/09/24 04:59:40;;;;;;;13.00;7.10;;;;;;;;;;5025222;28;20037;-75
2023/09/24 05:02:06;;;;;;;12.90;7.40;;;;;;;;;;5005609;28;20034;-74
2023/09/24 05:04:32;;;;;;;12.55;6.95;;;;;;;;;;5033241;28;20104;-74
2023/09/24 05:06:58;;;;;;;13.18;7.40;;;;;;;;;;5035098;28;20037;-75
2023/09/24 05:09:24;;;;;;;16.25;6.97;;;;;;;;;;5021907;28;20033;-74
2023/09/24 05:11:50;;;;;;;14.30;6.93;;;;;;;;;;5017705;28;20107;-74
2023/09/24 05:14:16;;;;;;;15.63;8.27;;;;;;;;;;5035081;28;20029;-75
2023/09/24 05:16:42;;;;;;;18.85;11.23;;;;;;;;;;5024062;28;20084;-76
2023/09/24 05:19:08;;;;;;;14.88;8.68;;;;;;;;;;5023077;28;20388;-76
2023/09/24 05:21:34;;;;;;;12.38;7.20;;;;;;;;;;5019885;28;20040;-76
2023/09/24 05:24:00;;;;;;;13.40;7.43;;;;;;;;;;5038526;28;20065;-76
2023/09/24 05:26:26;;;;;;;14.98;6.95;;;;;;;;;;5041053;28;20047;-75
2023/09/24 05:28:52;;;;;;;12.75;7.20;;;;;;;;;;5035748;28;20037;-76
2023/09/24 05:31:18;;;;;;;15.00;7.13;;;;;;;;;;5039619;28;20085;-74
2023/09/24 05:33:44;;;;;;;18.08;7.90;;;;;;;;;;5033448;28;20037;-73
2023/09/24 05:36:11;;;;;;;11.55;7.20;;;;;;;;;;5031006;28;20025;-79
2023/09/24 05:38:37;;;;;;;17.20;7.65;;;;;;;;;;5032144;28;20017;-77
2023/09/24 05:41:05;;;;;;;11.55;8.05;;;;;;;;;;5047027;28;20096;-73
2023/09/24 05:43:32;;;;;;;18.75;8.57;;;;;;;;;;5019127;28;20470;-74
2023/09/24 05:45:58;;;;;;;18.30;9.13;;;;;;;;;;5016422;28;20100;-73
2023/09/24 05:48:24;;;;;;;19.23;10.80;;;;;;;;;;5029044;28;20117;-74
2023/09/24 05:50:50;;;;;;;14.13;9.82;;;;;;;;;;5029540;28;20528;-74
2023/09/24 05:53:16;;;;;;;19.60;10.35;;;;;;;;;;5031934;28;20026;-74
2023/09/24 05:55:52;;;;;;;19.33;9.85;;;;;;;;;;5022659;28;20042;-75
2023/09/24 05:58:18;;;;;;;16.33;10.68;;;;;;;;;;5039421;28;20052;-74
2023/09/24 06:00:45;;;;;;;15.32;9.05;;;;;;;;;;5031490;28;20029;-76
2023/09/24 06:03:13;;;;;;;17.95;9.07;;;;;;;;;;5037858;28;20029;-73
2023/09/24 06:05:39;;;;;;;17.67;9.57;;;;;;;;;;5014179;28;20025;-76
2023/09/24 06:08:06;;;;;;;13.55;9.60;;;;;;;;;;5024972;28;20025;-75
2023/09/24 06:10:32;;;;;;;16.75;9.48;;;;;;;;;;5029203;28;20026;-75
2023/09/24 06:12:58;;;;;;;15.70;9.10;;;;;;;;;;5025311;28;20072;-74
2023/09/24 06:15:24;;;;;;;19.30;10.90;;;;;;;;;;5015393;28;20032;-75
2023/09/24 06:17:50;;;;;;;13.38;8.93;;;;;;;;;;5031421;28;20029;-74
2023/09/24 06:20:16;;;;;;;12.25;8.48;;;;;;;;;;5012143;28;20459;-74
2023/09/24 06:22:44;;;;;;;13.90;9.40;;;;;;;;;;5012607;28;20054;-73
2023/09/24 06:25:10;;;;;;;12.95;9.13;;;;;;;;;;5010888;28;20026;-72
2023/09/24 06:27:36;;;;;;;14.55;10.10;;;;;;;;;;5012305;28;20097;-72
2023/09/24 06:30:04;;;;;;;16.58;9.52;;;;;;;;;;5012796;28;20060;-75
2023/09/24 06:32:30;;;;;;;18.33;10.15;;;;;;;;;;5012945;28;20040;-75
2023/09/24 06:34:56;;;;;;;13.45;9.48;;;;;;;;;;5010665;28;20117;-76
2023/09/24 06:37:22;;;;;;;14.18;9.52;;;;;;;;;;5011038;28;20144;-72
2023/09/24 06:39:48;;;;;;;14.75;9.20;;;;;;;;;;5011210;28;20026;-73
2023/09/24 06:42:14;;;;;;;14.18;9.48;;;;;;;;;;5011892;28;20026;-74
2023/09/24 06:44:40;;;;;;;10.73;8.32;;;;;;;;;;5012820;28;20022;-73
2023/09/24 06:47:06;;;;;;;13.25;9.05;;;;;;;;;;5011079;28;20485;-74
2023/09/24 06:49:32;;;;;;;12.07;8.00;;;;;;;;;;5011341;28;20033;-74
2023/09/24 06:51:58;;;;;;;15.02;8.85;;;;;;;;;;5011428;28;20030;-73
2023/09/24 06:54:25;;;;;;;18.50;8.57;;;;;;;;;;5010425;28;20062;-73
2023/09/24 06:56:51;;;;;;;14.43;7.80;;;;;;;;;;5009830;28;20022;-73
2023/09/24 06:59:17;;;;;;;12.77;7.55;;;;;;;;;;5010040;28;20441;-74
2023/09/24 07:01:43;;;;;;;14.45;7.13;;;;;;;;;;5010011;28;20113;-73
2023/09/24 07:04:09;;;;;;;15.93;7.93;;;;;;;;;;5009953;28;20049;-73
2023/09/24 07:06:35;;;;;;;13.98;7.47;;;;;;;;;;5009926;28;20022;-73
2023/09/24 07:09:02;;;;;;;12.80;6.80;;;;;;;;;;5008976;28;20037;-72
2023/09/24 07:11:34;;;;;;;11.35;6.95;;;;;;;;;;5033040;28;20044;-73
2023/09/24 07:14:00;;;;;;;12.38;6.63;;;;;;;;;;5033335;28;20036;-73
2023/09/24 07:16:26;;;;;;;17.70;6.72;;;;;;;;;;5032776;28;20508;-72
2023/09/24 07:18:53;;;;;;;9.32;6.13;;;;;;;;;;5032913;28;20030;-71
2023/09/24 07:21:24;;;;;;;9.77;5.80;;;;;;;;;;5033849;28;20039;-74
2023/09/24 07:23:54;;;;;;;12.70;5.40;;;;;;;;;;5034383;28;20018;-73
2023/09/24 07:26:20;;;;;;;12.75;5.32;;;;;;;;;;5034086;28;20075;-74
2023/09/24 07:28:47;;;;;;;13.30;5.88;;;;;;;;;;5034994;28;20025;-73
2023/09/24 07:31:19;;;;;;;13.07;4.50;;;;;;;;;;5035064;28;20026;-75
2023/09/24 07:33:46;;;;;;;10.73;4.93;;;;;;;;;;5035035;28;20033;-74
2023/09/24 07:36:12;;;;;;;8.73;4.57;;;;;;;;;;5034170;28;20021;-73
2023/09/24 07:38:40;;;;;;;12.48;5.00;;;;;;;;;;5032967;28;20392;-75
2023/09/24 07:41:07;;;;;;;11.35;4.40;;;;;;;;;;5033803;28;20033;-76
2023/09/24 07:43:33;;;;;;;8.55;3.97;;;;;;;;;;5034414;28;20399;-73
2023/09/24 07:45:59;;;;;;;11.05;4.20;;;;;;;;;;5033042;28;20030;-73
2023/09/24 07:48:25;;;;;;;6.88;3.50;;;;;;;;;;5033020;28;20041;-73
2023/09/24 07:50:55;;;;;;;9.73;3.35;;;;;;;;;;5032786;28;20041;-73
2023/09/24 07:53:22;;;;;;;13.07;5.40;;;;;;;;;;5033856;28;20407;-73
2023/09/24 07:55:57;;;;;;;10.35;4.45;;;;;;;;;;5033491;28;20025;-72
2023/09/24 07:58:24;;;;;;;10.77;4.30;;;;;;;;;;5033890;28;20384;-73
2023/09/24 08:00:50;;;;;;;16.75;4.93;;;;;;;;;;5035282;28;20032;-73
2023/09/24 08:03:17;;;;;;;11.35;3.72;;;;;;;;;;5034703;28;20563;-73
2023/09/24 08:05:43;;;;;;;9.40;3.70;;;;;;;;;;5034690;28;20025;-74
2023/09/24 08:08:09;;;;;;;10.52;3.33;;;;;;;;;;5034321;28;20030;-73
2023/09/24 08:10:35;;;;;;;12.15;3.03;;;;;;;;;;5034524;28;20029;-73
2023/09/24 08:13:03;;;;;;;12.00;3.05;;;;;;;;;;5034130;28;20542;-74
2023/09/24 08:15:29;;;;;;;5.78;2.67;;;;;;;;;;5034204;28;20032;-73
2023/09/24 08:17:56;;;;;;;7.90;2.70;;;;;;;;;;5034315;28;20106;-74
2023/09/24 08:20:22;;;;;;;12.60;5.50;;;;;;;;;;5034497;28;20036;-74
2023/09/24 08:22:48;;;;;;;12.40;3.22;;;;;;;;;;5033822;28;20059;-73
2023/09/24 08:25:14;;;;;;;9.52;2.75;;;;;;;;;;5034508;28;20365;-77
2023/09/24 08:27:40;;;;;;;8.80;2.05;;;;;;;;;;5033957;28;20036;-73
2023/09/24 08:30:07;;;;;;;9.30;2.67;;;;;;;;;;5033550;28;20108;-73
2023/09/24 08:32:33;;;;;;;7.82;2.20;;;;;;;;;;5034473;28;20029;-73
2023/09/24 08:34:59;;;;;;;7.88;2.20;;;;;;;;;;5035721;28;20041;-74
2023/09/24 08:37:25;;;;;;;11.05;2.92;;;;;;;;;;5036827;28;20029;-75
2023/09/24 08:39:51;;;;;;;4.45;1.95;;;;;;;;;;5035932;28;20420;-73
2023/09/24 08:42:19;;;;;;;9.55;2.08;;;;;;;;;;5030296;28;20117;-74
2023/09/24 08:44:48;;;;;;;8.38;2.65;;;;;;;;;;5016052;28;20022;-73
2023/09/24 08:47:14;;;;;;;7.55;1.70;;;;;;;;;;5017418;28;20034;-74
2023/09/24 08:49:40;;;;;;;14.50;2.35;;;;;;;;;;5017166;28;20099;-74
2023/09/24 08:52:07;;;;;;;8.48;1.80;;;;;;;;;;5017988;28;20025;-76
2023/09/24 08:54:34;;;;;;;5.70;1.90;;;;;;;;;;5016721;28;20095;-74
2023/09/24 08:57:00;;;;;;;5.22;1.52;;;;;;;;;;5016299;28;20018;-74
2023/09/24 08:59:26;;;;;;;6.00;1.50;;;;;;;;;;5016946;28;20032;-75
2023/09/24 09:01:54;;;;;;;9.15;1.90;;;;;;;;;;5016302;28;20481;-75
2023/09/24 09:04:20;;;;;;;9.10;1.90;;;;;;;;;;5016636;28;20025;-76
2023/09/24 09:06:46;;;;;;;9.40;1.90;;;;;;;;;;5012726;28;20034;-74
2023/09/24 09:09:24;;;;;;;11.93;1.85;;;;;;;;;;5012322;28;20508;-73
2023/09/24 09:11:50;;;;;;;8.88;1.77;;;;;;;;;;5010645;28;20017;-73
2023/09/24 09:14:16;;;;;;;5.70;1.50;;;;;;;;;;5011229;28;20029;-74
2023/09/24 09:16:56;;;;;;;9.07;2.45;;;;;;;;;;5011149;28;20030;-74
2023/09/24 09:19:23;;;;;;;4.57;1.40;;;;;;;;;;5011408;28;20045;-73
2023/09/24 09:21:49;;;;;;;7.15;1.50;;;;;;;;;;5011581;28;20029;-76
2023/09/24 09:24:24;;;;;;;5.88;1.77;;;;;;;;;;5011479;28;20022;-73
2023/09/24 09:26:57;;;;;;;10.25;2.30;;;;;;;;;;5011781;28;20026;-73
2023/09/24 09:29:27;;;;;;;7.18;1.70;;;;;;;;;;5016396;28;20033;-75
2023/09/24 09:31:54;;;;;;;8.27;1.45;;;;;;;;;;5013083;28;20481;-75
2023/09/24 09:34:23;;;;;;;7.75;1.90;;;;;;;;;;5012542;28;20041;-76
2023/09/24 09:36:50;;;;;;;7.63;1.80;;;;;;;;;;5013518;28;20030;-76
2023/09/24 09:39:16;;;;;;;5.40;1.60;;;;;;;;;;5013436;28;20087;-74
2023/09/24 09:41:42;;;;;;;8.05;1.83;;;;;;;;;;5015572;28;20026;-74
2023/09/24 09:44:09;;;;;;;8.02;1.83;;;;;;;;;;5019126;28;20033;-76
2023/09/24 09:46:35;;;;;;;8.52;1.90;;;;;;;;;;5010904;28;20026;-74
2023/09/24 09:49:04;;;;;;;6.80;1.75;;;;;;;;;;5012158;28;20026;-74
2023/09/24 09:51:34;;;;;;;8.65;1.63;;;;;;;;;;5015093;28;20018;-74
2023/09/24 09:54:06;;;;;;;7.97;2.15;;;;;;;;;;5015918;28;20477;-72
2023/09/24 09:56:35;;;;;;;6.70;1.70;;;;;;;;;;5014528;28;20048;-73
2023/09/24 09:59:02;;;;;;;5.15;1.75;;;;;;;;;;5011017;28;20030;-73
2023/09/24 10:01:28;;;;;;;8.80;2.15;;;;;;;;;;5018292;28;20032;-72
2023/09/24 10:03:55;;;;;;;7.47;1.70;;;;;;;;;;5025955;28;20073;-76
2023/09/24 10:06:22;;;;;;;8.18;2.13;;;;;;;;;;5033854;28;20029;-78
2023/09/24 10:08:49;;;;;;;5.47;1.88;;;;;;;;;;5025897;28;20028;-75
2023/09/24 10:11:33;;;;;;;7.10;1.60;;;;;;;;;;5015829;28;20037;-74
2023/09/24 10:14:06;;;;;;;11.50;1.93;;;;;;;;;;5023002;28;20026;-78
2023/09/24 10:16:39;;;;;;;6.22;1.90;;;;;;;;;;5024725;28;20026;-75
2023/09/24 10:19:12;;;;;;;6.65;2.10;;;;;;;;;;5009694;28;20036;-75
2023/09/24 10:21:38;;;;;;;11.95;2.20;;;;;;;;;;5012044;28;20088;-78
2023/09/24 10:24:10;;;;;;;9.90;1.90;;;;;;;;;;5011496;28;20045;-75
2023/09/24 10:26:48;;;;;;;6.22;1.70;;;;;;;;;;5010013;28;20084;-73
2023/09/24 10:29:16;;;;;;;5.13;1.88;;;;;;;;;;5011664;28;20507;-75
2023/09/24 10:32:01;;;;;;;5.95;1.73;;;;;;;;;;5011902;28;20048;-75
2023/09/24 10:34:27;;;;;;;;;;;;;;;;;;5011602;28;20038;-73
2023/09/24 10:37:09;;;;;;;5.63;1.90;;;;;;;;;;5011302;28;20165;-74
2023/09/24 10:39:55;;;;;;;7.15;2.17;;;;;;;;;;5013322;28;20081;-75
2023/09/24 10:42:21;;;;;;;5.35;1.83;;;;;;;;;;5012828;28;20030;-78
2023/09/24 10:44:47;;;;;;;5.57;2.15;;;;;;;;;;5012666;28;20022;-75
2023/09/24 10:47:38;;;;;;;6.45;2.55;;;;;;;;;;5013463;28;20034;-75
2023/09/24 10:50:11;;;;;;;6.75;2.80;;;;;;;;;;5016759;28;20108;-75
2023/09/24 10:52:56;;;;;;;8.68;3.42;;;;;;;;;;5015652;28;20017;-76
2023/09/24 10:55:34;;;;;;;8.43;2.03;;;;;;;;;;5015042;28;20105;-74
2023/09/24 10:58:02;;;;;;;5.15;1.70;;;;;;;;;;5015880;28;20053;-75
2023/09/24 11:00:28;;;;;;;8.27;2.10;;;;;;;;;;5017058;28;20105;-75
2023/09/24 11:02:56;;;;;;;8.18;2.40;;;;;;;;;;5017012;28;20140;-75
2023/09/24 11:05:22;;;;;;;4.53;1.85;;;;;;;;;;5015727;28;20476;-75
2023/09/24 11:07:48;;;;;;;4.20;2.13;;;;;;;;;;5015787;28;20025;-75
2023/09/24 11:10:18;;;;;;;5.68;2.20;;;;;;;;;;5017757;28;20048;-75
2023/09/24 11:12:51;;;;;;;6.63;2.10;;;;;;;;;;5013250;28;20026;-73
2023/09/24 11:15:20;;;;;;;5.22;2.08;;;;;;;;;;5013770;28;20472;-75
2023/09/24 11:17:47;;;;;;;7.55;2.10;;;;;;;;;;5015589;28;20079;-74
2023/09/24 11:20:17;;;;;;;5.07;2.10;;;;;;;;;;5015119;28;20040;-76
2023/09/24 11:22:43;;;;;;;5.22;1.80;;;;;;;;;;5015143;28;20538;-75
2023/09/24 11:25:10;;;;;;;3.50;1.92;;;;;;;;;;5015068;28;20089;-74
2023/09/24 11:27:45;;;;;;;7.80;1.70;;;;;;;;;;5014170;28;20030;-75
2023/09/24 11:30:11;;;;;;;6.82;1.75;;;;;;;;;;5014265;28;20460;-74
2023/09/24 11:32:37;;;;;;;3.88;1.73;;;;;;;;;;5014263;28;20437;-75
2023/09/24 11:35:11;;;;;;;5.00;1.55;;;;;;;;;;5014116;28;20034;-75
2023/09/24 11:37:49;;;;;;;5.43;1.48;;;;;;;;;;5014406;28;20026;-75
2023/09/24 11:40:24;;;;;;;4.88;1.75;;;;;;;;;;5015054;28;20022;-75
2023/09/24 11:42:50;;;;;;;5.57;1.83;;;;;;;;;;5015505;28;20092;-73
2023/09/24 11:45:17;;;;;;;5.13;1.55;;;;;;;;;;5014712;28;20352;-76
2023/09/24 11:47:43;;;;;;;3.97;1.67;;;;;;;;;;5014459;28;20018;-76
2023/09/24 11:50:09;;;;;;;3.72;1.60;;;;;;;;;;5016269;28;20021;-75
2023/09/24 11:52:35;;;;;;;6.90;1.85;;;;;;;;;;5013427;28;20033;-77
2023/09/24 11:55:01;;;;;;;2.17;1.30;;;;;;;;;;5013247;28;20026;-76
2023/09/24 11:57:27;;;;;;;5.28;1.77;;;;;;;;;;5012077;28;20061;-75
2023/09/24 11:59:53;;;;;;;3.92;2.05;;;;;;;;;;5015485;28;20057;-76
2023/09/24 12:02:19;;;;;;;23.75;7.78;;;;;;;;;;5016001;28;20033;-74
2023/09/24 12:04:45;;;;;;;9.52;4.47;;;;;;;;;;5013426;28;20022;-74
2023/09/24 12:07:11;;;;;;;19.67;7.53;;;;;;;;;;5013388;28;20020;-75
2023/09/24 12:09:37;;;;;;;2.97;2.10;;;;;;;;;;5013460;28;20536;-75
2023/09/24 12:12:03;;;;;;;6.97;3.15;;;;;;;;;;5013351;28;20033;-76
2023/09/24 12:14:32;;;;;;;4.55;2.50;;;;;;;;;;5012695;28;20116;-74
2023/09/24 12:16:58;;;;;;;4.82;2.50;;;;;;;;;;5013029;28;20030;-74
2023/09/24 12:19:24;;;;;;;3.13;2.10;;;;;;;;;;5013500;28;20034;-74
2023/09/24 12:21:50;;;;;;;4.05;2.50;;;;;;;;;;5013531;28;20026;-74
2023/09/24 12:24:15;;;;;;;6.78;2.38;;;;;;;;;;5013472;28;20024;-74
2023/09/24 12:26:41;;;;;;;4.53;2.28;;;;;;;;;;5013357;28;20068;-73
2023/09/24 12:29:07;;;;;;;5.15;2.78;;;;;;;;;;5014178;28;20033;-75
2023/09/24 12:31:35;;;;;;;6.93;3.00;;;;;;;;;;5014965;28;20029;-75
2023/09/24 12:34:01;;;;;;;5.28;2.80;;;;;;;;;;5014263;28;20083;-75
2023/09/24 12:36:29;;;;;;;8.10;3.10;;;;;;;;;;5014348;28;20437;-76
2023/09/24 12:38:55;;;;;;;4.70;2.40;;;;;;;;;;5013562;28;20074;-74
2023/09/24 12:41:21;;;;;;;2.95;2.05;;;;;;;;;;5013388;28;20476;-75
2023/09/24 12:43:48;;;;;;;3.78;2.10;;;;;;;;;;5013264;28;20022;-74
2023/09/24 12:46:14;;;;;;;8.18;2.30;;;;;;;;;;5012981;28;20105;-75
2023/09/24 12:48:40;;;;;;;4.45;1.90;;;;;;;;;;5012400;28;20587;-75
2023/09/24 12:51:06;;;;;;;3.90;1.95;;;;;;;;;;5015487;28;20105;-75
2023/09/24 12:53:33;;;;;;;5.07;2.00;;;;;;;;;;5014805;28;20034;-75
2023/09/24 12:55:59;;;;;;;5.68;1.90;;;;;;;;;;5013799;28;20393;-74
2023/09/24 12:58:25;;;;;;;2.45;1.50;;;;;;;;;;5015888;28;20037;-74
2023/09/24 13:00:51;;;;;;;3.60;1.63;;;;;;;;;;5013057;28;20125;-73
2023/09/24 13:03:17;;;;;;;4.20;2.03;;;;;;;;;;5013236;28;20033;-76
2023/09/24 13:05:43;;;;;;;3.28;1.80;;;;;;;;;;5013093;28;20363;-75
2023/09/24 13:08:12;;;;;;;2.95;1.50;;;;;;;;;;5012708;28;20033;-75
2023/09/24 13:10:38;;;;;;;3.22;1.52;;;;;;;;;;5013494;28;20030;-75
2023/09/24 13:13:05;;;;;;;2.95;1.58;;;;;;;;;;5012189;28;20492;-75
2023/09/24 13:15:31;;;;;;;4.97;1.65;;;;;;;;;;5012257;28;20049;-73
2023/09/24 13:17:57;;;;;;;3.38;1.25;;;;;;;;;;5012485;28;20022;-74
2023/09/24 13:20:23;;;;;;;2.40;1.35;;;;;;;;;;5011224;28;20018;-73
2023/09/24 13:22:49;;;;;;;3.92;1.50;;;;;;;;;;5012560;28;20018;-74
2023/09/24 13:25:15;;;;;;;5.70;1.67;;;;;;;;;;5012490;28;20029;-73
2023/09/24 13:27:41;;;;;;;2.90;1.42;;;;;;;;;;5012324;28;20018;-74
2023/09/24 13:30:08;;;;;;;3.58;1.60;;;;;;;;;;5012396;28;20085;-73
2023/09/24 13:32:35;;;;;;;3.03;1.70;;;;;;;;;;5012357;28;20052;-76
2023/09/24 13:35:03;;;;;;;3.90;1.60;;;;;;;;;;5010726;28;20022;-76
2023/09/24 13:37:30;;;;;;;3.40;1.80;;;;;;;;;;5013268;28;20026;-75
2023/09/24 13:39:56;;;;;;;2.65;1.33;;;;;;;;;;5013710;28;20478;-75
2023/09/24 13:42:22;;;;;;;7.70;1.90;;;;;;;;;;5013905;28;20105;-75
2023/09/24 13:44:48;;;;;;;4.93;1.70;;;;;;;;;;5016268;28;20050;-76
2023/09/24 13:47:15;;;;;;;2.35;1.55;;;;;;;;;;5013079;28;20087;-76
2023/09/24 13:49:41;;;;;;;2.15;1.20;;;;;;;;;;5013007;28;20075;-75
2023/09/24 13:52:07;;;;;;;4.00;1.50;;;;;;;;;;5012998;28;20034;-76
2023/09/24 13:54:34;;;;;;;2.80;1.38;;;;;;;;;;5014839;28;20030;-75
2023/09/24 13:57:00;;;;;;;2.53;1.45;;;;;;;;;;5025238;28;20544;-76
2023/09/24 13:59:26;;;;;;;4.25;1.52;;;;;;;;;;5020735;28;20026;-79
2023/09/24 14:01:52;;;;;;;4.45;1.70;;;;;;;;;;5013263;28;20018;-76
2023/09/24 14:04:18;;;;;;;3.88;1.70;;;;;;;;;;5012377;28;20443;-79
2023/09/24 14:06:47;;;;;;;2.97;1.27;;;;;;;;;;5013637;28;20025;-76
2023/09/24 14:14:43;;;;;;;;;;;;;;;;;;5013392;28;20092;-78
2023/09/24 14:17:09;;;;;;;4.72;1.70;;;;;;;;;;5014791;28;19912;-77
2023/09/24 14:19:35;;;;;;;4.60;2.35;;;;;;;;;;5015153;28;20041;-77
2023/09/24 14:22:01;;;;;;;3.78;1.48;;;;;;;;;;5016462;28;20026;-76
2023/09/24 14:24:27;;;;;;;3.35;1.30;;;;;;;;;;5016717;28;20382;-76
2023/09/24 14:26:53;;;;;;;1.85;1.10;;;;;;;;;;5017186;28;20021;-80
2023/09/24 14:29:19;;;;;;;2.75;1.20;;;;;;;;;;5015708;28;20033;-75
2023/09/24 14:31:46;;;;;;;4.18;1.40;;;;;;;;;;5015582;28;20045;-76
2023/09/24 14:34:12;;;;;;;1.92;1.02;;;;;;;;;;5015362;28;20038;-75
2023/09/24 14:36:38;;;;;;;4.60;1.50;;;;;;;;;;5015701;28;20370;-76
2023/09/24 14:39:04;;;;;;;6.25;1.58;;;;;;;;;;5015758;28;20040;-76